Flight Track Log - Related Links

Times and Time Zones

All times are in EDT time to prevent confusion due to time zone crossing. See the UAL4588 flight status page for this flight to view local times or setup timezone preferences in your user account.

Time Position Orientation Groundspeed Altitude Reporting Facility
EDT Latitude Longitude Course Direction KTS MPH feet Rate Location/Type
Mon 10:24:36 AM 29.9781 -95.2933 337° Northwest 173 199 700  Level Houston Center
Mon 10:25:49 AM 30.0431 -95.2928 360° North 250 288 3,200 1,832 Climbing Houston Center
Mon 10:26:11 AM 30.0592 -95.2981 344° North 241 277 3,600 1,855 Climbing Houston Center
Mon 10:26:44 AM 30.1047 -95.3239 334° Northwest 273 314 4,900 1,333 Climbing Houston Center
Mon 10:27:14 AM 30.1242 -95.3367 330° Northwest 259 298 5,000 1,672 Climbing Houston Center
Mon 10:27:45 AM 30.1681 -95.3717 325° Northwest 271 312 6,600 2,903 Climbing Houston Center
Mon 10:28:16 AM 30.2008 -95.3958 327° Northwest 274 315 8,000 2,362 Climbing Houston Center
Mon 10:29:19 AM 30.2656 -95.4453 327° Northwest 277 319 10,300 1,597 Climbing Houston Center
Mon 10:30:00 AM 30.6005 -95.6835 337° Northwest  Level FlightAware Approximate
Mon 10:30:20 AM 30.3425 -95.5039 327° Northwest 324 373 11,300  Level Houston Center
Mon 10:31:22 AM 30.4222 -95.5650 327° Northwest 343 395 13,400 1,839 Climbing Houston Center
Mon 10:32:24 AM 30.5047 -95.6278 327° Northwest 351 404 15,100 1,500 Climbing Houston Center
Mon 10:33:26 AM 30.5936 -95.6825 332° Northwest 362 417 16,500 1,355 Climbing Houston Center
Mon 10:34:28 AM 30.7050 -95.7425 335° Northwest 373 429 17,900 1,258 Climbing Houston Center
Mon 10:35:30 AM 30.8025 -95.7956 335° Northwest 382 440 19,100 1,210 Climbing Houston Center
Mon 10:36:32 AM 30.9022 -95.8486 335° Northwest 389 448 20,400 1,161 Climbing Houston Center
Mon 10:37:34 AM 31.0031 -95.9025 335° Northwest 393 452 21,500 1,152 Climbing Houston Center
Mon 10:38:37 AM 31.1061 -95.9581 335° Northwest 400 460 22,800 1,444 Climbing Houston Center
Mon 10:39:22 AM 31.1928 -95.9953 340° North 404 465 24,100 1,657 Climbing Fort Worth Center
Mon 10:40:22 AM 31.2997 -96.0350 342° North 398 458 25,700 1,650 Climbing Fort Worth Center
Mon 10:41:22 AM 31.4003 -96.0747 341° North 385 443 27,400 1,150 Climbing Fort Worth Center
Mon 10:42:22 AM 31.5108 -96.0633 North 378 435 28,000 800 Climbing Fort Worth Center
Mon 10:43:22 AM 31.6233 -96.0375 11° North 399 459 29,000 1,100 Climbing Fort Worth Center
Mon 10:44:22 AM 31.7358 -96.0089 12° North 412 474 30,200 1,450 Climbing Fort Worth Center
Mon 10:45:22 AM 31.8461 -95.9828 11° North 412 474 31,900 1,700 Climbing Fort Worth Center
Mon 10:46:22 AM 31.9589 -95.9711 North 394 453 33,600 1,500 Climbing Fort Worth Center
Mon 10:47:22 AM 32.0431 -96.0311 329° Northwest 342 394 34,900 1,150 Climbing Fort Worth Center
Mon 10:48:22 AM 32.1147 -96.1011 320° Northwest 332 382 35,900 550 Climbing Fort Worth Center
Mon 10:49:22 AM 32.1906 -96.1689 323° Northwest 339 390 36,000 50 Climbing Fort Worth Center
Mon 10:50:22 AM 32.2581 -96.2342 321° Northwest 347 399 36,000  Level Fort Worth Center
Mon 10:51:22 AM 32.3506 -96.3192 322° Northwest 368 423 36,000  Level Fort Worth Center
Mon 10:52:22 AM 32.4306 -96.3919 322° Northwest 390 449 36,000  Level Fort Worth Center
Mon 10:53:22 AM 32.5314 -96.4869 322° Northwest 407 468 36,000  Level Fort Worth Center
Mon 10:54:22 AM 32.6156 -96.5650 322° Northwest 426 490 36,000  Level Fort Worth Center
Mon 10:55:22 AM 32.7183 -96.6628 321° Northwest 434 499 36,000  Level Fort Worth Center
Mon 10:56:22 AM 32.8067 -96.7436 322° Northwest 434 499 36,000  Level Fort Worth Center
Mon 10:57:22 AM 32.9136 -96.8442 322° Northwest 442 509 36,000  Level Fort Worth Center
Mon 10:58:22 AM 33.0014 -96.9256 322° Northwest 442 509 36,000  Level Fort Worth Center
Mon 10:59:22 AM 33.1106 -97.0267 322° Northwest 442 509 36,000  Level Fort Worth Center
Mon 11:00:22 AM 33.1983 -97.1056 323° Northwest 442 509 36,000  Level Fort Worth Center
Mon 11:01:22 AM 33.3050 -97.2072 321° Northwest 442 509 36,000  Level Fort Worth Center
Mon 11:02:22 AM 33.3906 -97.2892 321° Northwest 442 509 36,000  Level Fort Worth Center
Mon 11:03:22 AM 33.4950 -97.3911 321° Northwest 442 509 36,000  Level Fort Worth Center
Mon 11:04:22 AM 33.5911 -97.4883 320° Northwest 442 509 36,000  Level Fort Worth Center
Mon 11:05:22 AM 33.6808 -97.5683 323° Northwest 452 520 36,000  Level Fort Worth Center
Mon 11:06:22 AM 33.7808 -97.6608 322° Northwest 452 520 36,000  Level Fort Worth Center
Mon 11:07:22 AM 33.8911 -97.7689 321° Northwest 457 526 36,000  Level Fort Worth Center
Mon 11:08:22 AM 33.9908 -97.8669 321° Northwest 457 526 36,000  Level Fort Worth Center
Mon 11:09:22 AM 34.0928 -97.9628 322° Northwest 462 532 36,000  Level Fort Worth Center
Mon 11:10:22 AM 34.1903 -98.0639 319° Northwest 462 532 36,000  Level Fort Worth Center
Mon 11:11:22 AM 34.2919 -98.1650 321° Northwest 462 532 36,000  Level Fort Worth Center
Mon 11:12:22 AM 34.3894 -98.2617 321° Northwest 457 526 36,000  Level Fort Worth Center
Mon 11:13:22 AM 34.4911 -98.3608 321° Northwest 462 532 36,000  Level Fort Worth Center
Mon 11:14:22 AM 34.5903 -98.4578 321° Northwest 462 532 36,000  Level Fort Worth Center
Mon 11:15:22 AM 34.6856 -98.5600 319° Northwest 462 532 36,000  Level Fort Worth Center
Mon 11:16:22 AM 34.7658 -98.6747 310° West 457 526 36,000  Level Fort Worth Center
Mon 11:17:22 AM 34.8478 -98.8000 309° West 462 532 36,000  Level Fort Worth Center
Mon 11:18:22 AM 34.9278 -98.9228 308° West 468 539 36,000  Level Fort Worth Center
Mon 11:19:22 AM 35.0097 -99.0486 309° West 468 539 36,000  Level Fort Worth Center
Mon 11:20:22 AM 35.0914 -99.1669 310° West 468 539 36,000  Level Fort Worth Center
Mon 11:22:11 AM 35.2356 -99.3883 309° West 458 527 36,000  Level Albuquerque Center
Mon 11:23:13 AM 35.3164 -99.5119 309° West 461 531 36,000  Level Albuquerque Center
Mon 11:24:16 AM 35.3961 -99.6356 308° West 460 529 36,000  Level Albuquerque Center
Mon 11:25:18 AM 35.4767 -99.7608 308° West 462 532 36,000  Level Albuquerque Center
Mon 11:26:20 AM 35.5575 -99.8864 308° West 464 534 36,000  Level Albuquerque Center
Mon 11:27:22 AM 35.6394 -100.0119 309° West 465 535 36,000  Level Albuquerque Center
Mon 11:27:59 AM 35.6867 -100.0869 308° West 465 535 36,000  Level Albuquerque Center
Mon 11:29:01 AM 35.7678 -100.2136 308° West 466 536 36,000  Level Albuquerque Center
Mon 11:30:03 AM 35.8642 -100.3650 308° West 465 535 36,000  Level Albuquerque Center
Mon 11:31:05 AM 35.9439 -100.4900 308° West 463 533 36,000  Level Albuquerque Center
Mon 11:32:07 AM 36.0228 -100.6169 308° West 462 532 36,000  Level Albuquerque Center
Mon 11:33:09 AM 36.1033 -100.7431 308° West 464 534 36,000  Level Albuquerque Center
Mon 11:34:11 AM 36.1806 -100.8681 307° West 459 528 36,000  Level Albuquerque Center
Mon 11:35:13 AM 36.2589 -100.9936 308° West 459 528 36,000  Level Albuquerque Center
Mon 11:36:15 AM 36.3400 -101.1233 308° West 461 531 36,000  Level Albuquerque Center
Mon 11:37:17 AM 36.4269 -101.2631 308° West 459 528 36,000  Level Albuquerque Center
Mon 11:38:18 AM 36.5003 -101.3842 307° West 458 527 36,000  Level Albuquerque Center
Mon 11:39:20 AM 36.5872 -101.5239 308° West 457 526 36,000  Level Albuquerque Center
Mon 11:40:22 AM 36.6617 -101.6453 307° West 458 527 36,000  Level Albuquerque Center
Mon 11:41:24 AM 36.7464 -101.7872 307° West 456 525 36,000  Level Albuquerque Center
Mon 11:42:26 AM 36.8203 -101.9072 308° West 455 524 36,000  Level Albuquerque Center
Mon 11:43:28 AM 36.8928 -102.0275 307° West 453 521 36,000  Level Albuquerque Center
Mon 11:44:29 AM 36.9781 -102.1697 307° West 455 524 36,000  Level Albuquerque Center
Mon 11:45:31 AM 37.0522 -102.2903 308° West 456 525 36,000  Level Albuquerque Center
Mon 11:46:33 AM 37.1364 -102.4319 307° West 454 522 36,000  Level Albuquerque Center
Mon 11:47:35 AM 37.2117 -102.5594 307° West 456 525 36,000  Level Albuquerque Center
Mon 11:48:37 AM 37.2842 -102.6806 307° West 454 522 36,000  Level Albuquerque Center
Mon 11:49:39 AM 37.3681 -102.8233 307° West 455 524 36,000  Level Albuquerque Center
Mon 11:50:40 AM 37.4400 -102.9447 307° West 453 521 36,000  Level Albuquerque Center
Mon 11:51:44 AM 37.5228 -103.0861 306° West 452 520 36,000  Level Denver Center
Mon 11:52:46 AM 37.5947 -103.2081 307° West 453 521 36,000  Level Denver Center
Mon 11:53:48 AM 37.6781 -103.3508 306° West 454 522 36,000  Level Denver Center
Mon 11:54:50 AM 37.7489 -103.4736 306° West 455 524 36,000  Level Denver Center
Mon 11:55:52 AM 37.8325 -103.6158 307° West 454 522 36,000  Level Denver Center
Mon 11:56:54 AM 37.9022 -103.7383 306° West 453 521 36,000  Level Denver Center
Mon 11:57:56 AM 37.9844 -103.8811 306° West 452 520 36,000  Level Denver Center
Mon 11:58:58 AM 38.0542 -104.0047 306° West 453 521 36,000  Level Denver Center
Mon 12:00:00 PM 38.1347 -104.1475 306° West 449 517 36,000  Level Denver Center
Mon 12:01:02 PM 38.2050 -104.2708 306° West 450 518 36,000  Level Denver Center
Mon 12:02:04 PM 38.2847 -104.4161 305° West 449 517 36,000  Level Denver Center
Mon 12:03:06 PM 38.3053 -104.5681 280° West 459 528 36,000  Level Denver Center
Mon 12:04:08 PM 38.3172 -104.7503 275° West 462 532 36,000  Level Denver Center
Mon 12:05:10 PM 38.3275 -104.9061 275° West 462 532 36,000  Level Denver Center
Mon 12:06:12 PM 38.3414 -105.0864 276° West 461 531 36,000  Level Denver Center
Mon 12:07:14 PM 38.3514 -105.2422 275° West 460 529 36,000  Level Denver Center
Mon 12:08:16 PM 38.3642 -105.4239 275° West 462 532 36,000  Level Denver Center
Mon 12:09:18 PM 38.3731 -105.5808 274° West 464 534 36,000  Level Denver Center
Mon 12:10:20 PM 38.3853 -105.7639 275° West 465 535 36,000  Level Denver Center
Mon 12:11:22 PM 38.3922 -105.9228 273° West 468 539 36,000  Level Denver Center
Mon 12:12:24 PM 38.4044 -106.1056 275° West 466 536 36,000  Level Denver Center
Mon 12:13:26 PM 38.4114 -106.2486 274° West 469 540 36,000  Level Denver Center
Mon 12:14:28 PM 38.4211 -106.4472 274° West 467 537 36,000  Level Denver Center
Mon 12:15:31 PM 38.4306 -106.6133 274° West 468 539 36,000  Level Denver Center
Mon 12:16:33 PM 38.4389 -106.7786 274° West 466 536 36,000  Level Denver Center
Mon 12:17:35 PM 38.4472 -106.9456 274° West 468 539 36,000 -774 Level Denver Center
Mon 12:18:37 PM 38.4761 -107.1072 283° West 466 536 34,400 -2,371 Descending Denver Center
Mon 12:19:39 PM 38.5347 -107.2731 294° West 450 518 31,100 -3,000 Descending Denver Center
Mon 12:20:41 PM 38.5822 -107.4086 294° West 439 505 28,200 -3,048 Descending Denver Center
Mon 12:21:43 PM 38.6353 -107.5617 294° West 426 490 24,800 -3,000 Descending Denver Center
Mon 12:22:45 PM 38.6811 -107.6914 294° West 419 482 22,000 -2,758 Descending Denver Center
Mon 12:23:47 PM 38.7244 -107.8161 294° West 405 466 19,100 -2,710 Descending Denver Center
Mon 12:24:49 PM 38.7747 -107.9611 294° West 400 460 16,400 -1,984 Descending Denver Center
Mon 12:25:51 PM 38.8203 -108.0919 294° West 387 445 15,000 -823 Descending Denver Center
Mon 12:26:53 PM 38.8800 -108.2117 303° West 395 455 14,700 -677 Descending Denver Center
Mon 12:27:55 PM 38.9681 -108.2994 322° Northwest 385 443 13,600 -1,065 Descending Denver Center
Mon 12:28:57 PM 39.0508 -108.3797 323° Northwest 344 396 12,500 -1,226 Descending Denver Center
Mon 12:31:01 PM 39.1772 -108.5083 322° Northwest 267 307 9,800 -1,323 Descending Denver Center
Mon 12:32:03 PM 39.2294 -108.5600 323° Northwest 237 273 8,400 -1,306 Descending Denver Center
Mon 12:33:05 PM 39.2111 -108.6108 245° Southwest 176 203 7,100 -1,161 Descending Denver Center
Mon 12:34:07 PM 39.1681 -108.6033 172° South 160 184 6,000 -968 Descending Denver Center
Mon 12:35:09 PM 39.1414 -108.5564 126° Southeast 153 176 5,100 -581 Descending Denver Center
Mon 12:36:11 PM 39.1197 -108.5178 126° Southeast 150 173 4,800 -290 Descending Denver Center
Mon 12:38:00 PM 39.1167 -108.5167 90° East  Level FlightAware Approximate
Mon 12:45:00 PM 39.1224 -108.5267 90° East  Level Estimated

Login

Don't have an account? Register now (free) for customized features, flight alerts, and more!